createdAt,value
2023-12-01T00:01:33.944Z,96641.91
2023-12-01T00:04:01.485Z,96637.27
2023-12-01T00:06:28.802Z,96639.20
2023-12-01T00:08:56.138Z,96639.59
2023-12-01T00:11:23.391Z,96644.06
2023-12-01T00:13:50.744Z,96645.77
2023-12-01T00:16:18.003Z,96651.40
2023-12-01T00:18:45.386Z,96648.46
2023-12-01T00:21:13.111Z,96644.59
2023-12-01T00:23:40.366Z,96641.95
2023-12-01T00:26:08.234Z,96643.65
2023-12-01T00:28:37.684Z,96635.92
2023-12-01T00:31:05.241Z,96631.97
2023-12-01T00:33:32.916Z,96637.45
2023-12-01T00:36:01.938Z,96638.55
2023-12-01T00:38:29.192Z,96635.76
2023-12-01T00:40:56.451Z,96635.36
2023-12-01T00:43:23.877Z,96637.61
2023-12-01T00:45:51.284Z,96634.98
2023-12-01T00:48:18.628Z,96632.52
2023-12-01T00:50:45.966Z,96630.02
2023-12-01T00:53:13.288Z,96630.41
2023-12-01T00:55:40.666Z,96623.91
2023-12-01T00:58:08.055Z,96624.14
2023-12-01T01:00:35.423Z,96624.29
2023-12-01T01:03:02.809Z,96625.91
2023-12-01T01:05:30.506Z,96626.15
2023-12-01T01:07:57.954Z,96635.19
2023-12-01T01:10:25.302Z,96631.09
2023-12-01T01:12:53.110Z,96625.13
2023-12-01T01:15:20.628Z,96619.73
2023-12-01T01:17:48.007Z,96608.80
2023-12-01T01:20:15.446Z,96607.48
2023-12-01T01:22:42.877Z,96605.55
2023-12-01T01:25:10.686Z,96602.69
2023-12-01T01:27:38.054Z,96596.42
2023-12-01T01:30:06.435Z,96590.93
2023-12-01T01:32:33.852Z,96587.99
2023-12-01T01:35:01.292Z,96596.34
2023-12-01T01:37:28.635Z,96592.33
2023-12-01T01:39:56.033Z,96593.71
2023-12-01T01:42:23.345Z,96601.61
2023-12-01T01:44:50.812Z,96592.70
2023-12-01T01:47:18.358Z,96585.36
2023-12-01T01:49:45.606Z,96584.66
2023-12-01T01:52:13.216Z,96573.36
2023-12-01T01:54:40.852Z,96590.91
2023-12-01T01:57:08.076Z,96583.33
2023-12-01T01:59:35.743Z,96589.11
2023-12-01T02:02:03.043Z,96592.98
2023-12-01T02:04:30.561Z,96583.85
2023-12-01T02:06:58.421Z,96582.16
2023-12-01T02:09:25.668Z,96571.18
2023-12-01T02:11:53.330Z,96565.91
2023-12-01T02:14:23.466Z,96570.63
2023-12-01T02:16:51.298Z,96574.80
2023-12-01T02:19:18.710Z,96574.73
2023-12-01T02:21:47.555Z,96577.20
2023-12-01T02:24:15.450Z,96562.44
2023-12-01T02:26:42.803Z,96557.41
2023-12-01T02:29:10.227Z,96559.27
2023-12-01T02:31:38.069Z,96561.42
2023-12-01T02:34:05.562Z,96571.33
2023-12-01T02:36:33.092Z,96581.21
2023-12-01T02:39:00.671Z,96560.71
2023-12-01T02:41:28.237Z,96533.19
2023-12-01T02:43:55.990Z,96540.22
2023-12-01T02:46:24.820Z,96554.54
2023-12-01T02:48:52.747Z,96577.64
2023-12-01T02:51:20.199Z,96588.23
2023-12-01T02:53:47.858Z,96576.18
2023-12-01T02:56:15.530Z,96566.29
2023-12-01T02:58:42.970Z,96563.65
2023-12-01T03:01:10.294Z,96559.87
2023-12-01T03:03:37.772Z,96568.45
2023-12-01T03:06:05.379Z,96582.13
2023-12-01T03:08:32.924Z,96582.20
2023-12-01T03:11:00.199Z,96580.27
2023-12-01T03:13:27.499Z,96570.91
2023-12-01T03:15:54.992Z,96563.34
2023-12-01T03:18:24.085Z,96569.69
2023-12-01T03:20:51.710Z,96566.89
2023-12-01T03:23:18.888Z,96566.74
2023-12-01T03:25:46.111Z,96573.77
2023-12-01T03:28:13.460Z,96587.38
2023-12-01T03:30:40.876Z,96588.45
2023-12-01T03:33:08.186Z,96583.42
2023-12-01T03:35:35.539Z,96584.03
2023-12-01T03:38:02.886Z,96590.14
2023-12-01T03:40:30.237Z,96586.13
2023-12-01T03:42:57.778Z,96587.98
2023-12-01T03:45:25.142Z,96583.57
2023-12-01T03:47:53.154Z,96583.73
2023-12-01T03:50:21.767Z,96564.39
2023-12-01T03:52:50.931Z,96565.02
2023-12-01T03:55:18.420Z,96564.70
2023-12-01T03:57:46.753Z,96561.61
2023-12-01T04:00:16.628Z,96566.41
2023-12-01T04:02:45.120Z,96556.20
2023-12-01T04:05:24.684Z,96543.45
2023-12-01T04:07:55.665Z,96567.42
2023-12-01T04:10:27.358Z,96586.98
2023-12-01T04:12:56.533Z,96578.39
2023-12-01T04:15:27.652Z,96574.44
2023-12-01T04:17:55.679Z,96588.75
2023-12-01T04:20:23.847Z,96604.82
2023-12-01T04:22:52.350Z,96600.34
2023-12-01T04:25:20.084Z,96595.32
2023-12-01T04:27:47.970Z,96582.64
2023-12-01T04:30:15.810Z,96564.92
2023-12-01T04:32:47.196Z,96561.21
2023-12-01T04:35:14.818Z,96575.98
2023-12-01T04:37:42.997Z,96571.55
2023-12-01T04:40:16.952Z,96560.73
2023-12-01T04:42:48.220Z,96560.13
2023-12-01T04:45:22.916Z,96549.38
2023-12-01T04:47:54.027Z,96555.48
2023-12-01T04:50:25.499Z,96555.17
2023-12-01T04:52:57.852Z,96553.46
2023-12-01T04:55:30.044Z,96563.36
2023-12-01T04:57:57.923Z,96568.77
2023-12-01T05:00:28.122Z,96560.58
2023-12-01T05:02:56.555Z,96553.61
2023-12-01T05:05:25.495Z,96550.52
2023-12-01T05:07:54.482Z,96554.77
2023-12-01T05:10:22.903Z,96537.06
2023-12-01T05:12:56.198Z,96516.03
2023-12-01T05:15:25.852Z,96533.05
2023-12-01T05:17:57.134Z,96569.15
2023-12-01T05:20:25.562Z,96575.49
2023-12-01T05:22:53.951Z,96570.38
2023-12-01T05:25:22.141Z,96567.30
2023-12-01T05:27:50.735Z,96547.80
2023-12-01T05:30:19.456Z,96553.21
2023-12-01T05:32:48.030Z,96553.84
2023-12-01T05:35:15.495Z,96542.70
2023-12-01T05:37:47.760Z,96573.77
2023-12-01T05:40:37.539Z,96580.18
2023-12-01T05:43:06.078Z,96567.90
2023-12-01T05:45:34.862Z,96557.52
2023-12-01T05:48:04.537Z,96547.34
2023-12-01T05:50:32.601Z,96538.55
2023-12-01T05:53:01.847Z,96521.96
2023-12-01T05:55:35.252Z,96529.48
2023-12-01T05:58:12.362Z,96546.19
2023-12-01T06:00:40.433Z,96558.43
2023-12-01T06:03:09.114Z,96569.90
2023-12-01T06:05:38.498Z,96560.93
2023-12-01T06:08:13.331Z,96551.05
2023-12-01T06:10:41.107Z,96562.70
2023-12-01T06:13:09.428Z,96543.85
2023-12-01T06:15:37.354Z,96539.05
2023-12-01T06:18:05.208Z,96544.54
2023-12-01T06:20:33.412Z,96546.88
2023-12-01T06:23:02.202Z,96552.91
2023-12-01T06:25:32.443Z,96555.80
2023-12-01T06:31:13.731Z,96573.95
2023-12-01T06:33:41.083Z,96562.48
2023-12-01T06:36:09.724Z,96571.41
2023-12-01T06:38:37.018Z,96584.73
2023-12-01T06:41:04.455Z,96568.73
2023-12-01T06:43:32.209Z,96569.08
2023-12-01T06:46:00.640Z,96582.16
2023-12-01T06:48:28.038Z,96588.74
2023-12-01T06:50:55.302Z,96579.48
2023-12-01T06:53:22.516Z,96584.13
2023-12-01T06:55:51.409Z,96600.53
2023-12-01T06:58:19.984Z,96600.23
2023-12-01T07:00:49.650Z,96604.27
2023-12-01T07:03:17.030Z,96600.25
2023-12-01T07:05:46.783Z,96606.81
2023-12-01T07:08:14.706Z,96604.90
2023-12-01T07:10:43.102Z,96601.98
2023-12-01T07:13:10.723Z,96605.23
2023-12-01T07:15:39.271Z,96601.61
2023-12-01T07:18:07.147Z,96595.27
2023-12-01T07:20:35.167Z,96619.27
2023-12-01T07:23:05.941Z,96624.46
2023-12-01T07:25:35.188Z,96634.77
2023-12-01T07:28:04.604Z,96651.04
2023-12-01T07:30:31.991Z,96659.77
2023-12-01T07:33:02.007Z,96655.58
2023-12-01T07:35:29.776Z,96651.69
2023-12-01T07:37:57.135Z,96645.56
2023-12-01T07:40:26.104Z,96649.52
2023-12-01T07:42:56.386Z,96639.15
2023-12-01T07:45:23.881Z,96631.57
2023-12-01T07:47:52.510Z,96619.82
2023-12-01T07:50:20.389Z,96625.33
2023-12-01T07:52:49.351Z,96639.18
2023-12-01T07:55:18.285Z,96641.68
2023-12-01T07:57:45.802Z,96622.74
2023-12-01T08:00:18.628Z,96610.83
2023-12-01T08:02:54.747Z,96622.54
2023-12-01T08:05:25.206Z,96642.52
2023-12-01T08:07:55.468Z,96652.67
2023-12-01T08:10:26.019Z,96646.58
2023-12-01T08:12:59.299Z,96654.41
2023-12-01T08:15:34.017Z,96676.33
2023-12-01T08:18:20.579Z,96680.70
2023-12-01T08:20:51.387Z,96692.56
2023-12-01T08:23:24.712Z,96687.31
2023-12-01T08:25:53.637Z,96682.98
2023-12-01T08:28:21.103Z,96664.48
2023-12-01T08:30:50.073Z,96651.23
2023-12-01T08:33:19.495Z,96653.06
2023-12-01T08:35:48.538Z,96663.09
2023-12-01T08:38:27.745Z,96671.55
2023-12-01T08:40:55.561Z,96673.45
2023-12-01T08:43:23.337Z,96673.55
2023-12-01T08:45:50.616Z,96685.80
2023-12-01T08:48:18.049Z,96690.71
2023-12-01T08:50:47.689Z,96686.09
2023-12-01T08:53:15.929Z,96686.98
2023-12-01T08:55:43.285Z,96692.81
2023-12-01T08:58:10.655Z,96702.13
2023-12-01T09:00:39.119Z,96706.33
2023-12-01T09:03:07.235Z,96712.61
2023-12-01T09:05:35.051Z,96717.74
2023-12-01T09:08:05.896Z,96719.48
2023-12-01T09:10:33.846Z,96712.70
2023-12-01T09:13:01.620Z,96716.54
2023-12-01T09:15:30.749Z,96719.20
2023-12-01T09:17:58.296Z,96711.71
2023-12-01T09:20:27.056Z,96701.81
2023-12-01T09:22:54.408Z,96703.02
2023-12-01T09:25:21.757Z,96707.02
2023-12-01T09:27:49.209Z,96704.39
2023-12-01T09:30:18.919Z,96698.95
2023-12-01T09:32:47.427Z,96691.89
2023-12-01T09:35:52.197Z,96682.67
2023-12-01T09:38:06.337Z,96687.23
2023-12-01T09:40:36.379Z,96693.19
2023-12-01T09:43:03.694Z,96690.93
2023-12-01T09:45:31.906Z,96685.39
2023-12-01T09:48:00.724Z,96685.66
2023-12-01T09:50:28.342Z,96696.50
2023-12-01T09:52:56.026Z,96702.89
2023-12-01T09:55:23.493Z,96696.83
2023-12-01T09:57:53.707Z,96698.86
2023-12-01T10:00:21.532Z,96701.13
2023-12-01T10:02:50.023Z,96694.77
2023-12-01T10:05:19.981Z,96695.25
2023-12-01T10:07:47.523Z,96688.48
2023-12-01T10:10:22.288Z,96685.59
2023-12-01T10:13:06.384Z,96683.36
2023-12-01T10:15:34.667Z,96696.02
2023-12-01T10:18:16.165Z,96700.91
2023-12-01T10:21:00.415Z,96707.05
2023-12-01T10:23:29.264Z,96717.30
2023-12-01T10:25:57.744Z,96719.02
2023-12-01T10:28:28.117Z,96711.29
2023-12-01T10:30:59.446Z,96702.28
2023-12-01T10:33:28.005Z,96701.05
2023-12-01T10:36:11.690Z,96701.54
2023-12-01T10:38:39.008Z,96715.78
2023-12-01T10:41:06.804Z,96717.03
2023-12-01T10:43:34.244Z,96714.48
2023-12-01T10:46:04.232Z,96710.33
2023-12-01T10:48:32.730Z,96707.95
2023-12-01T10:51:00.261Z,96728.77
2023-12-01T10:53:27.755Z,96736.97
2023-12-01T10:55:55.838Z,96737.91
2023-12-01T10:58:24.550Z,96729.40
2023-12-01T11:00:53.565Z,96734.05
2023-12-01T11:03:24.371Z,96738.55
2023-12-01T11:06:05.758Z,96734.34
2023-12-01T11:08:48.260Z,96727.29
2023-12-01T11:11:25.777Z,96731.17
2023-12-01T11:13:56.179Z,96729.31
2023-12-01T11:16:23.495Z,96720.80
2023-12-01T11:18:50.898Z,96718.49
2023-12-01T11:21:19.015Z,96712.91
2023-12-01T11:23:46.383Z,96709.20
2023-12-01T11:26:13.749Z,96710.90
2023-12-01T11:28:41.086Z,96719.25
2023-12-01T11:31:09.874Z,96731.63
2023-12-01T11:33:47.339Z,96735.27
2023-12-01T11:36:20.939Z,96740.58
2023-12-01T11:39:19.771Z,96749.17
2023-12-01T11:41:56.962Z,96746.45
2023-12-01T11:44:37.688Z,96753.07
2023-12-01T11:47:08.413Z,96765.42
2023-12-01T11:49:40.380Z,96761.84
2023-12-01T11:52:16.355Z,96773.33
2023-12-01T11:54:44.016Z,96763.78
2023-12-01T11:57:17.687Z,96759.71
2023-12-01T11:59:45.706Z,96759.52
2023-12-01T12:02:16.035Z,96759.29
2023-12-01T12:04:50.083Z,96752.66
2023-12-01T12:07:18.307Z,96741.60
2023-12-01T12:09:47.053Z,96742.23
2023-12-01T12:12:16.498Z,96742.92
2023-12-01T12:14:44.497Z,96744.09
2023-12-01T12:17:12.663Z,96747.42
2023-12-01T12:19:48.337Z,96747.73
2023-12-01T12:22:21.595Z,96742.16
2023-12-01T12:24:49.830Z,96750.05
2023-12-01T12:27:17.612Z,96747.80
2023-12-01T12:29:46.338Z,96744.23
2023-12-01T12:32:13.934Z,96741.45
2023-12-01T12:34:43.509Z,96747.02
2023-12-01T12:37:14.517Z,96744.70
2023-12-01T12:39:46.072Z,96755.01
2023-12-01T12:42:17.181Z,96755.88
2023-12-01T12:44:46.282Z,96744.77
2023-12-01T12:47:13.715Z,96753.83
2023-12-01T12:49:41.654Z,96761.38
2023-12-01T12:52:08.940Z,96759.55
2023-12-01T12:54:36.303Z,96764.50
2023-12-01T12:57:04.526Z,96762.67
2023-12-01T12:59:31.923Z,96768.25
2023-12-01T13:02:00.336Z,96768.13
2023-12-01T13:04:28.162Z,96765.59
2023-12-01T13:06:57.966Z,96761.11
2023-12-01T13:09:25.671Z,96763.91
2023-12-01T13:11:53.146Z,96760.08
2023-12-01T13:14:20.445Z,96762.35
2023-12-01T13:16:55.095Z,96777.69
2023-12-01T13:19:26.132Z,96777.54
2023-12-01T13:21:55.992Z,96779.63
2023-12-01T13:24:26.853Z,96777.08
2023-12-01T13:26:55.679Z,96767.70
2023-12-01T13:29:23.100Z,96761.61
2023-12-01T13:31:50.897Z,96764.11
2023-12-01T13:34:19.772Z,96765.81
2023-12-01T13:36:49.928Z,96762.73
2023-12-01T13:39:18.548Z,96770.02
2023-12-01T13:41:46.606Z,96779.30
2023-12-01T13:44:14.095Z,96770.69
2023-12-01T13:46:41.724Z,96770.54
2023-12-01T13:49:09.313Z,96780.44
2023-12-01T13:51:37.402Z,96786.14
2023-12-01T13:54:04.953Z,96790.48
2023-12-01T13:56:32.384Z,96803.78
2023-12-01T13:58:59.939Z,96802.20
2023-12-01T14:01:27.369Z,96795.70
2023-12-01T14:03:54.902Z,96783.23
2023-12-01T14:06:22.455Z,96787.02
2023-12-01T14:08:49.984Z,96798.55
2023-12-01T14:11:17.233Z,96805.98
2023-12-01T14:13:44.586Z,96804.96
2023-12-01T14:16:13.112Z,96800.33
2023-12-01T14:18:40.639Z,96814.24
2023-12-01T14:21:08.092Z,96822.84
2023-12-01T14:23:35.424Z,96821.12
2023-12-01T14:26:02.791Z,96817.00
2023-12-01T14:28:32.013Z,96805.00
2023-12-01T14:31:00.561Z,96800.26
2023-12-01T14:33:27.935Z,96807.44
2023-12-01T14:35:55.520Z,96808.14
2023-12-01T14:38:22.817Z,96807.88
2023-12-01T14:40:50.071Z,96814.61
2023-12-01T14:43:17.429Z,96823.65
2023-12-01T14:45:44.711Z,96826.11
2023-12-01T14:48:12.168Z,96824.70
2023-12-01T14:50:40.610Z,96821.66
2023-12-01T14:53:07.960Z,96822.63
2023-12-01T14:55:35.213Z,96821.08
2023-12-01T14:58:02.463Z,96812.86
2023-12-01T15:00:29.944Z,96820.28
2023-12-01T15:02:57.319Z,96822.44
2023-12-01T15:05:24.637Z,96829.53
2023-12-01T15:07:51.877Z,96847.63
2023-12-01T15:10:19.128Z,96854.20
2023-12-01T15:12:46.584Z,96834.98
2023-12-01T15:15:13.969Z,96832.27
2023-12-01T15:17:41.422Z,96836.14
2023-12-01T15:20:10.079Z,96835.80
2023-12-01T15:22:37.329Z,96839.59
2023-12-01T15:25:05.296Z,96835.88
2023-12-01T15:27:33.671Z,96834.84
2023-12-01T15:30:00.968Z,96840.17
2023-12-01T15:32:29.020Z,96840.07
2023-12-01T15:34:56.452Z,96839.21
2023-12-01T15:37:23.704Z,96839.52
2023-12-01T15:39:51.152Z,96833.32
2023-12-01T15:42:18.651Z,96821.33
2023-12-01T15:44:46.084Z,96822.48
2023-12-01T15:47:13.426Z,96816.19
2023-12-01T15:49:40.670Z,96815.33
2023-12-01T15:52:08.472Z,96815.30
2023-12-01T15:54:35.820Z,96816.85
2023-12-01T15:57:03.921Z,96818.95
2023-12-01T15:59:31.522Z,96824.05
2023-12-01T16:01:59.525Z,96828.45
2023-12-01T16:04:26.838Z,96833.08
2023-12-01T16:06:54.090Z,96840.80
2023-12-01T16:09:21.361Z,96846.05
2023-12-01T16:11:48.703Z,96838.16
2023-12-01T16:14:16.054Z,96826.92
2023-12-01T16:16:43.518Z,96827.38
2023-12-01T16:19:10.965Z,96834.34
2023-12-01T16:21:45.444Z,96833.55
2023-12-01T16:24:14.100Z,96824.71
2023-12-01T16:26:42.345Z,96827.88
2023-12-01T16:29:09.612Z,96828.65
2023-12-01T16:31:37.653Z,96814.00
2023-12-01T16:34:04.985Z,96833.42
2023-12-01T16:36:33.727Z,96851.90
2023-12-01T16:39:01.780Z,96860.86
2023-12-01T16:41:29.340Z,96860.77
2023-12-01T16:43:57.903Z,96857.83
2023-12-01T16:46:25.162Z,96857.44
2023-12-01T16:48:52.561Z,96863.32
2023-12-01T16:51:20.096Z,96866.09
2023-12-01T16:53:47.571Z,96849.46
2023-12-01T16:56:17.608Z,96836.06
2023-12-01T16:58:46.548Z,96834.58
2023-12-01T17:01:13.885Z,96849.51
2023-12-01T17:03:41.247Z,96867.13
2023-12-01T17:06:09.246Z,96865.04
2023-12-01T17:08:36.555Z,96862.13
2023-12-01T17:11:03.909Z,96840.48
2023-12-01T17:13:32.229Z,96837.46
2023-12-01T17:15:59.527Z,96841.24
2023-12-01T17:18:27.194Z,96845.87
2023-12-01T17:20:54.594Z,96837.84
2023-12-01T17:23:23.453Z,96843.54
2023-12-01T17:25:50.799Z,96855.98
2023-12-01T17:28:18.152Z,96865.19
2023-12-01T17:30:45.402Z,96864.25
2023-12-01T17:33:12.724Z,96875.70
2023-12-01T17:35:42.409Z,96876.77
2023-12-01T17:38:42.282Z,96858.20
2023-12-01T17:41:09.559Z,96856.88
2023-12-01T17:43:36.782Z,96859.48
2023-12-01T17:46:04.672Z,96861.52
2023-12-01T17:48:32.137Z,96866.75
2023-12-01T17:50:59.482Z,96873.71
2023-12-01T17:53:26.706Z,96870.78
2023-12-01T17:55:53.961Z,96871.63
2023-12-01T17:58:21.209Z,96862.56
2023-12-01T18:00:48.563Z,96861.65
2023-12-01T18:03:15.875Z,96872.54
2023-12-01T18:05:43.272Z,96873.46
2023-12-01T18:08:10.622Z,96863.02
2023-12-01T18:10:38.195Z,96852.95
2023-12-01T18:13:05.770Z,96850.55
2023-12-01T18:15:33.059Z,96856.20
2023-12-01T18:18:00.419Z,96857.73
2023-12-01T18:20:27.802Z,96846.91
2023-12-01T18:22:55.555Z,96857.88
2023-12-01T18:25:23.426Z,96863.05
2023-12-01T18:27:50.577Z,96880.38
2023-12-01T18:30:20.585Z,96891.27
2023-12-01T18:32:48.152Z,96888.19
2023-12-01T18:35:16.525Z,96887.95
2023-12-01T18:37:43.777Z,96887.02
2023-12-01T18:40:12.472Z,96881.90
2023-12-01T18:42:39.712Z,96875.34
2023-12-01T18:45:07.673Z,96868.21
2023-12-01T18:47:37.289Z,96856.46
2023-12-01T18:50:05.292Z,96841.53
2023-12-01T18:52:32.707Z,96846.77
2023-12-01T18:54:59.963Z,96858.83
2023-12-01T18:57:27.871Z,96868.73
2023-12-01T18:59:55.346Z,96866.09
2023-12-01T19:02:23.003Z,96883.03
2023-12-01T19:04:50.401Z,96895.55
2023-12-01T19:07:17.957Z,96902.21
2023-12-01T19:09:45.514Z,96896.86
2023-12-01T19:12:12.894Z,96895.09
2023-12-01T19:14:40.221Z,96898.31
2023-12-01T19:17:07.574Z,96922.45
2023-12-01T19:19:34.874Z,96935.27
2023-12-01T19:22:02.392Z,96940.38
2023-12-01T19:24:30.166Z,96932.33
2023-12-01T19:26:57.534Z,96914.78
2023-12-01T19:29:24.955Z,96914.40
2023-12-01T19:31:52.309Z,96911.92
2023-12-01T19:34:19.626Z,96924.60
2023-12-01T19:36:47.329Z,96925.45
2023-12-01T19:39:14.627Z,96919.57
2023-12-01T19:41:43.052Z,96913.45
2023-12-01T19:44:10.302Z,96909.29
2023-12-01T19:46:37.666Z,96899.22
2023-12-01T19:49:05.160Z,96885.98
2023-12-01T19:51:32.948Z,96885.61
2023-12-01T19:54:00.326Z,96914.98
2023-12-01T19:56:29.133Z,96916.38
2023-12-01T19:58:56.370Z,96923.80
2023-12-01T20:01:23.619Z,96922.02
2023-12-01T20:03:50.975Z,96929.12
2023-12-01T20:06:18.464Z,96925.17
2023-12-01T20:08:45.890Z,96918.84
2023-12-01T20:11:13.137Z,96934.92
2023-12-01T20:13:40.495Z,96935.55
2023-12-01T20:16:08.358Z,96929.66
2023-12-01T20:18:35.860Z,96929.98
2023-12-01T20:21:03.697Z,96935.08
2023-12-01T20:23:31.025Z,96950.52
2023-12-01T20:25:58.301Z,96963.21
2023-12-01T20:28:25.475Z,96966.53
2023-12-01T20:30:52.787Z,96976.66
2023-12-01T20:33:20.137Z,96981.21
2023-12-01T20:35:48.406Z,96968.21
2023-12-01T20:38:15.883Z,96959.00
2023-12-01T20:40:43.131Z,96967.90
2023-12-01T20:43:10.368Z,96963.48
2023-12-01T20:45:38.099Z,96952.58
2023-12-01T20:48:05.986Z,96950.12
2023-12-01T20:50:33.368Z,96956.73
2023-12-01T20:53:00.702Z,96953.65
2023-12-01T20:55:28.053Z,96954.67
2023-12-01T20:57:55.305Z,96947.08
2023-12-01T21:00:22.714Z,96944.77
2023-12-01T21:02:50.143Z,96940.04
2023-12-01T21:05:17.687Z,96939.89
2023-12-01T21:07:45.666Z,96938.75
2023-12-01T21:10:13.106Z,96933.86
2023-12-01T21:12:40.349Z,96934.23
2023-12-01T21:15:08.523Z,96933.92
2023-12-01T21:17:36.965Z,96935.64
2023-12-01T21:20:05.430Z,96923.02
2023-12-01T21:22:32.741Z,96916.36
2023-12-01T21:24:59.982Z,96924.41
2023-12-01T21:27:27.380Z,96922.94
2023-12-01T21:29:54.730Z,96928.04
2023-12-01T21:32:23.787Z,96934.14
2023-12-01T21:34:51.060Z,96933.59
2023-12-01T21:37:18.387Z,96932.13
2023-12-01T21:39:45.676Z,96932.05
2023-12-01T21:42:13.048Z,96943.20
2023-12-01T21:44:42.699Z,96941.87
2023-12-01T21:47:09.963Z,96941.09
2023-12-01T21:49:37.499Z,96944.11
2023-12-01T21:52:04.772Z,96937.61
2023-12-01T21:54:32.191Z,96932.20
2023-12-01T21:56:59.898Z,96930.04
2023-12-01T21:59:27.129Z,96934.27
2023-12-01T22:01:54.443Z,96935.52
2023-12-01T22:04:21.841Z,96932.89
2023-12-01T22:06:52.660Z,96924.92
2023-12-01T22:09:20.894Z,96928.41
2023-12-01T22:11:48.212Z,96932.27
2023-12-01T22:14:15.655Z,96932.42
2023-12-01T22:16:44.195Z,96943.86
2023-12-01T22:19:14.159Z,96944.02
2023-12-01T22:21:41.402Z,96942.40
2023-12-01T22:24:08.777Z,96951.66
2023-12-01T22:26:36.109Z,96952.82
2023-12-01T22:29:03.359Z,96945.02
2023-12-01T22:31:33.584Z,96939.21
2023-12-01T22:34:00.867Z,96933.27
2023-12-01T22:36:28.194Z,96933.49
2023-12-01T22:38:55.490Z,96930.95
2023-12-01T22:41:22.898Z,96936.11
2023-12-01T22:43:50.153Z,96938.66
2023-12-01T22:46:17.616Z,96934.17
2023-12-01T22:48:45.050Z,96940.13
2023-12-01T22:51:13.780Z,96950.64
2023-12-01T22:53:41.194Z,96954.27
2023-12-01T22:56:12.003Z,96945.61
2023-12-01T22:58:40.100Z,96943.29
2023-12-01T23:01:09.065Z,96952.27
2023-12-01T23:03:36.456Z,96954.73
2023-12-01T23:06:04.554Z,96953.58
2023-12-01T23:08:32.171Z,96938.97
2023-12-01T23:10:59.545Z,96936.41
2023-12-01T23:13:26.879Z,96932.00
2023-12-01T23:15:54.150Z,96930.46
2023-12-01T23:18:21.647Z,96940.27
2023-12-01T23:20:49.038Z,96941.67
2023-12-01T23:23:16.531Z,96931.85
2023-12-01T23:25:43.953Z,96929.46
2023-12-01T23:28:11.230Z,96931.45
2023-12-01T23:30:38.638Z,96922.11
2023-12-01T23:33:06.090Z,96912.21
2023-12-01T23:35:33.588Z,96905.02
2023-12-01T23:38:00.823Z,96902.61
2023-12-01T23:40:28.282Z,96901.85
2023-12-01T23:42:56.367Z,96907.56
2023-12-01T23:45:23.628Z,96902.38
2023-12-01T23:47:50.910Z,96896.52
2023-12-01T23:50:18.432Z,96894.66
2023-12-01T23:52:45.675Z,96894.44
2023-12-01T23:55:12.912Z,96894.51
2023-12-01T23:57:40.061Z,96897.05
